Time;durP1;ratioP1;P1;durP2;ratioP2;P2;SDS_P1;SDS_P2;PMS_P1;PMS_P2;Temp;Humidity;BMP_temperature;BMP_pressure;BME280_temperature;BME280_humidity;BME280_pressure;Samples;Min_cycle;Max_cycle;Signal;HPM_P1;HPM_P2
2023/05/24 00:04:03;;;;;;;14.40;2.80;;;9.00;75.40;;;;;;4945627;28;20051;-77
2023/05/24 00:06:33;;;;;;;18.40;2.60;;;9.00;75.40;;;;;;4948823;28;20062;-77
2023/05/24 00:09:01;;;;;;;16.67;3.10;;;9.00;75.10;;;;;;4966195;28;20083;-77
2023/05/24 00:11:29;;;;;;;15.05;2.95;;;9.00;75.00;;;;;;4967310;28;20052;-77
2023/05/24 00:13:56;;;;;;;12.07;2.75;;;9.00;75.50;;;;;;4967444;28;20048;-77
2023/05/24 00:16:24;;;;;;;11.13;2.40;;;9.00;75.70;;;;;;4952634;28;20061;-77
2023/05/24 00:18:51;;;;;;;13.70;2.67;;;8.90;76.10;;;;;;4952470;28;20055;-77
2023/05/24 00:21:18;;;;;;;11.77;2.43;;;8.90;75.50;;;;;;4951228;28;20060;-77
2023/05/24 00:23:46;;;;;;;17.33;2.95;;;8.90;75.60;;;;;;4961285;28;20047;-77
2023/05/24 00:26:13;;;;;;;16.05;2.92;;;8.90;75.60;;;;;;4952543;28;20935;-77
2023/05/24 00:28:47;;;;;;;15.52;3.13;;;8.90;75.50;;;;;;4935111;28;20051;-77
2023/05/24 00:31:14;;;;;;;12.95;3.17;;;8.90;75.90;;;;;;4951256;28;20062;-77
2023/05/24 00:33:41;;;;;;;15.50;3.30;;;8.90;75.90;;;;;;4951498;28;20154;-77
2023/05/24 00:36:09;;;;;;;12.70;3.33;;;8.80;76.00;;;;;;4934860;28;20058;-77
2023/05/24 00:38:36;;;;;;;11.63;2.45;;;8.80;75.90;;;;;;4951196;28;20518;-77
2023/05/24 00:41:03;;;;;;;16.70;3.60;;;8.80;76.10;;;;;;4950564;28;21024;-77
2023/05/24 00:43:30;;;;;;;15.77;3.25;;;8.90;76.10;;;;;;4934990;28;20158;-77
2023/05/24 00:46:14;;;;;;;13.50;3.20;;;8.90;76.00;;;;;;4934868;28;20052;-77
2023/05/24 00:48:42;;;;;;;12.88;3.05;;;8.90;76.30;;;;;;4952366;28;20051;-77
2023/05/24 00:51:09;;;;;;;18.50;3.78;;;8.90;76.20;;;;;;4950551;28;20059;-78
2023/05/24 00:53:37;;;;;;;13.40;2.78;;;8.90;76.60;;;;;;4950923;28;20181;-77
2023/05/24 00:56:05;;;;;;;12.18;3.10;;;8.90;77.50;;;;;;4950842;28;20508;-77
2023/05/24 00:58:32;;;;;;;12.73;2.57;;;8.90;77.20;;;;;;4950891;28;21150;-78
2023/05/24 01:01:01;;;;;;;13.13;3.05;;;8.90;76.80;;;;;;4950367;28;20054;-77
2023/05/24 01:03:30;;;;;;;12.23;2.75;;;9.00;77.00;;;;;;4950607;28;20425;-77
2023/05/24 01:05:57;;;;;;;18.45;3.17;;;9.00;77.00;;;;;;4934657;28;20071;-77
2023/05/24 01:08:41;;;;;;;13.00;2.67;;;8.90;76.70;;;;;;4951943;28;20114;-77
2023/05/24 01:11:15;;;;;;;14.67;2.67;;;8.90;76.90;;;;;;4950102;28;20051;-77
2023/05/24 01:13:48;;;;;;;17.38;3.83;;;8.90;77.00;;;;;;4951798;28;20111;-77
2023/05/24 01:16:22;;;;;;;16.90;3.10;;;8.80;77.00;;;;;;4950258;28;20059;-77
2023/05/24 01:18:55;;;;;;;15.70;2.85;;;8.80;77.30;;;;;;4950577;28;20179;-77
2023/05/24 01:21:38;;;;;;;17.00;3.78;;;8.80;77.20;;;;;;4949162;28;20082;-77
2023/05/24 01:24:21;;;;;;;17.87;3.63;;;8.80;77.10;;;;;;4951572;28;20062;-77
2023/05/24 01:27:02;;;;;;;15.68;3.40;;;8.80;76.90;;;;;;4950144;28;20056;-77
2023/05/24 01:29:31;;;;;;;13.45;2.72;;;8.80;77.30;;;;;;4934281;28;20044;-77
2023/05/24 01:31:59;;;;;;;13.60;3.38;;;8.80;77.40;;;;;;4951263;28;20063;-79
2023/05/24 01:34:26;;;;;;;14.73;3.22;;;8.70;77.40;;;;;;4950065;28;20392;-77
2023/05/24 01:36:53;;;;;;;17.87;3.33;;;8.70;77.50;;;;;;4932895;28;20062;-77
2023/05/24 01:39:22;;;;;;;16.52;2.90;;;8.60;77.40;;;;;;4958017;28;20060;-77
2023/05/24 01:41:59;;;;;;;20.10;3.85;;;8.60;77.80;;;;;;4962708;28;20156;-77
2023/05/24 01:44:35;;;;;;;15.13;2.95;;;8.60;78.20;;;;;;4949781;28;20055;-77
2023/05/24 01:47:07;;;;;;;12.90;2.88;;;8.60;78.00;;;;;;4933727;28;20150;-77
2023/05/24 01:49:40;;;;;;;17.07;3.17;;;8.50;78.00;;;;;;4933922;28;20464;-77
2023/05/24 01:52:12;;;;;;;13.30;3.15;;;8.50;78.60;;;;;;4951006;28;20515;-77
2023/05/24 01:54:43;;;;;;;12.00;2.85;;;8.50;78.60;;;;;;4933336;28;20051;-77
2023/05/24 01:57:11;;;;;;;15.43;3.00;;;8.40;78.90;;;;;;4933823;28;20055;-77
2023/05/24 01:59:41;;;;;;;14.43;3.55;;;8.40;79.00;;;;;;4949864;28;20057;-77
2023/05/24 02:02:09;;;;;;;15.93;3.50;;;8.40;79.20;;;;;;4932575;28;20056;-77
2023/05/24 02:04:36;;;;;;;16.38;3.08;;;8.40;79.30;;;;;;4951072;28;20098;-77
2023/05/24 02:07:05;;;;;;;12.20;3.00;;;8.30;79.30;;;;;;4931906;28;20047;-77
2023/05/24 02:09:32;;;;;;;14.82;3.45;;;8.30;79.30;;;;;;4947908;28;20055;-77
2023/05/24 02:11:59;;;;;;;11.10;2.70;;;8.30;79.30;;;;;;4947716;28;20055;-77
2023/05/24 02:14:26;;;;;;;19.83;3.50;;;8.30;80.00;;;;;;4932413;28;21064;-77
2023/05/24 02:16:57;;;;;;;14.02;3.20;;;8.30;79.80;;;;;;4931451;28;20529;-77
2023/05/24 02:19:25;;;;;;;11.65;2.97;;;8.30;79.70;;;;;;4948035;28;20051;-77
2023/05/24 02:21:52;;;;;;;18.77;3.33;;;8.30;79.70;;;;;;4950465;28;20052;-77
2023/05/24 02:24:19;;;;;;;16.25;3.63;;;8.30;80.00;;;;;;4947590;28;20056;-77
2023/05/24 02:26:46;;;;;;;18.63;3.10;;;8.30;79.80;;;;;;4933425;28;20628;-77
2023/05/24 02:29:14;;;;;;;13.75;3.17;;;8.30;79.80;;;;;;4949224;28;20054;-77
2023/05/24 02:31:41;;;;;;;11.18;3.13;;;8.30;79.70;;;;;;4932949;28;20051;-77
2023/05/24 02:34:09;;;;;;;15.60;3.40;;;8.30;79.70;;;;;;4965456;28;20142;-77
2023/05/24 02:36:36;;;;;;;13.82;3.10;;;8.30;79.40;;;;;;4949446;28;20138;-77
2023/05/24 02:39:04;;;;;;;13.93;2.93;;;8.30;79.50;;;;;;4949219;28;20135;-77
2023/05/24 02:41:32;;;;;;;15.38;3.35;;;8.30;79.70;;;;;;4948679;28;20068;-77
2023/05/24 02:43:59;;;;;;;15.18;3.20;;;8.30;79.50;;;;;;4948726;28;20597;-77
2023/05/24 02:49:22;;;;;;;11.90;2.92;;;8.30;79.40;;;;;;4950044;28;20269;-77
2023/05/24 02:51:50;;;;;;;13.60;2.93;;;8.30;79.40;;;;;;4951574;28;20047;-77
2023/05/24 02:54:17;;;;;;;14.75;3.03;;;8.30;79.50;;;;;;4952119;28;20102;-76
2023/05/24 02:56:44;;;;;;;17.77;3.08;;;8.30;79.50;;;;;;4935307;28;20047;-76
2023/05/24 02:59:11;;;;;;;20.00;3.47;;;8.30;79.50;;;;;;4951327;28;20648;-76
2023/05/24 03:01:39;;;;;;;16.88;3.28;;;8.30;79.40;;;;;;4951117;28;20058;-77
2023/05/24 03:04:06;;;;;;;14.53;3.27;;;8.30;79.80;;;;;;4951747;28;20071;-77
2023/05/24 03:06:35;;;;;;;13.90;3.03;;;8.30;80.00;;;;;;4935416;28;20047;-76
2023/05/24 03:09:02;;;;;;;15.65;2.92;;;8.20;80.10;;;;;;4951541;28;20047;-77
2023/05/24 03:11:29;;;;;;;14.43;3.13;;;8.20;80.10;;;;;;4951558;28;20047;-77
2023/05/24 03:13:57;;;;;;;12.77;2.97;;;8.20;80.20;;;;;;4967660;28;20585;-76
2023/05/24 03:16:24;;;;;;;14.13;3.30;;;8.20;80.50;;;;;;4967937;28;20191;-76
2023/05/24 03:18:54;;;;;;;16.45;2.97;;;8.20;80.60;;;;;;4951324;28;20487;-76
2023/05/24 03:21:22;;;;;;;11.80;2.65;;;8.20;80.70;;;;;;4951277;28;20087;-77
2023/05/24 03:23:50;;;;;;;16.00;3.10;;;8.20;80.70;;;;;;4951076;28;20047;-77
2023/05/24 03:26:19;;;;;;;15.18;3.28;;;8.20;80.50;;;;;;4968779;28;20095;-76
2023/05/24 03:28:49;;;;;;;16.37;3.40;;;8.20;80.70;;;;;;4951391;28;20187;-77
2023/05/24 03:31:16;;;;;;;12.55;3.05;;;8.20;80.50;;;;;;4951170;28;20090;-76
2023/05/24 03:33:43;;;;;;;14.05;3.17;;;8.20;80.70;;;;;;4951146;28;20106;-77
2023/05/24 03:36:10;;;;;;;13.80;3.10;;;8.20;80.90;;;;;;4951265;28;20059;-77
2023/05/24 03:38:37;;;;;;;13.85;2.70;;;8.20;80.70;;;;;;4951023;28;20711;-77
2023/05/24 03:41:06;;;;;;;15.07;3.27;;;8.20;80.80;;;;;;4950702;28;20066;-77
2023/05/24 03:43:34;;;;;;;13.82;3.20;;;8.20;80.70;;;;;;4968650;28;20110;-76
2023/05/24 03:46:04;;;;;;;11.38;2.75;;;8.20;80.80;;;;;;4971029;28;20047;-77
2023/05/24 03:48:31;;;;;;;12.43;2.95;;;8.30;81.10;;;;;;4953998;28;20126;-77
2023/05/24 03:51:01;;;;;;;15.98;3.28;;;8.30;80.90;;;;;;4970748;28;20187;-77
2023/05/24 03:53:28;;;;;;;15.07;3.37;;;8.20;81.10;;;;;;4954517;28;20142;-76
2023/05/24 03:55:55;;;;;;;11.25;2.92;;;8.20;81.00;;;;;;4954473;28;20051;-76
2023/05/24 03:58:23;;;;;;;15.00;3.20;;;8.20;81.00;;;;;;4954506;28;20054;-76
2023/05/24 04:00:50;;;;;;;12.45;3.10;;;8.20;81.20;;;;;;4954353;28;20417;-76
2023/05/24 04:03:18;;;;;;;14.82;3.22;;;8.20;81.10;;;;;;4970807;28;20081;-77
2023/05/24 04:05:46;;;;;;;13.47;2.70;;;8.20;81.10;;;;;;4970705;28;20146;-77
2023/05/24 04:08:14;;;;;;;17.98;3.15;;;8.30;81.10;;;;;;4954465;28;20043;-77
2023/05/24 04:10:41;;;;;;;12.07;2.42;;;8.30;81.00;;;;;;4954367;28;20473;-77
2023/05/24 04:13:11;;;;;;;16.83;3.58;;;8.30;81.10;;;;;;4954167;28;20133;-77
2023/05/24 04:15:40;;;;;;;12.55;3.15;;;8.30;81.20;;;;;;4954273;28;20063;-76
2023/05/24 04:18:07;;;;;;;12.47;3.50;;;8.30;81.20;;;;;;4954037;28;20052;-77
2023/05/24 04:20:35;;;;;;;13.70;2.95;;;8.30;81.10;;;;;;4953944;28;20562;-77
2023/05/24 04:23:02;;;;;;;15.95;3.60;;;8.30;81.10;;;;;;4971289;28;20059;-76
2023/05/24 04:25:32;;;;;;;15.27;2.65;;;8.40;81.40;;;;;;4954101;28;20166;-76
2023/05/24 04:27:59;;;;;;;17.85;3.00;;;8.40;81.50;;;;;;4969970;28;20135;-77
2023/05/24 04:30:28;;;;;;;13.83;3.20;;;8.40;82.10;;;;;;4954045;28;20664;-77
2023/05/24 04:32:58;;;;;;;13.98;3.17;;;8.40;81.70;;;;;;4953493;28;21051;-76
2023/05/24 04:35:25;;;;;;;10.93;2.55;;;8.40;82.00;;;;;;4953796;28;20497;-77
2023/05/24 04:37:52;;;;;;;14.13;2.78;;;8.40;81.90;;;;;;4953895;28;20552;-77
2023/05/24 04:40:21;;;;;;;11.20;2.58;;;8.50;82.00;;;;;;4971175;28;20055;-76
2023/05/24 04:42:49;;;;;;;17.27;2.63;;;8.50;82.20;;;;;;4970128;28;20055;-76
2023/05/24 04:45:16;;;;;;;15.32;3.03;;;8.50;82.30;;;;;;4986064;28;20051;-78
2023/05/24 04:47:43;;;;;;;9.95;2.40;;;8.50;83.00;;;;;;4969441;28;20743;-77
2023/05/24 04:50:11;;;;;;;15.05;2.63;;;8.50;82.80;;;;;;4969683;28;20134;-77
2023/05/24 04:52:38;;;;;;;7.10;1.50;;;8.60;82.90;;;;;;4970080;28;20999;-76
2023/05/24 04:55:06;;;;;;;12.60;2.80;;;8.60;82.50;;;;;;4968301;28;20060;-76
2023/05/24 04:57:32;;;;;;;14.32;2.63;;;8.60;82.40;;;;;;4969866;28;20509;-77
2023/05/24 04:59:59;;;;;;;12.50;2.72;;;8.60;82.50;;;;;;4969276;28;20061;-76
2023/05/24 05:02:27;;;;;;;16.35;2.80;;;8.60;82.60;;;;;;4969532;28;20134;-77
2023/05/24 05:04:55;;;;;;;12.95;2.38;;;8.60;82.60;;;;;;4969894;28;20047;-76
2023/05/24 05:07:23;;;;;;;12.33;2.80;;;8.70;82.40;;;;;;4971330;28;20149;-77
2023/05/24 05:09:50;;;;;;;14.18;3.47;;;8.80;82.60;;;;;;4969880;28;20099;-77
2023/05/24 05:12:17;;;;;;;12.65;2.90;;;8.80;82.30;;;;;;4969191;28;20057;-76
2023/05/24 05:14:44;;;;;;;18.45;2.78;;;8.80;83.00;;;;;;4969554;28;20628;-77
2023/05/24 05:17:12;;;;;;;6.07;2.00;;;8.80;82.70;;;;;;4969678;28;20066;-77
2023/05/24 05:19:39;;;;;;;15.07;3.03;;;8.90;82.80;;;;;;4970639;28;20134;-77
2023/05/24 05:22:06;;;;;;;9.50;2.42;;;8.90;83.00;;;;;;4970618;28;20059;-77
2023/05/24 05:24:34;;;;;;;14.20;3.20;;;9.00;82.60;;;;;;4953163;28;20130;-77
2023/05/24 05:27:01;;;;;;;7.75;2.30;;;9.00;82.40;;;;;;4970918;28;20122;-76
2023/05/24 05:29:28;;;;;;;12.05;2.30;;;9.00;82.40;;;;;;4953237;28;20138;-77
2023/05/24 05:31:55;;;;;;;15.10;2.80;;;9.00;82.60;;;;;;4953417;28;20154;-76
2023/05/24 05:34:22;;;;;;;14.98;2.50;;;9.10;82.60;;;;;;4970671;28;20055;-77
2023/05/24 05:36:49;;;;;;;12.43;2.20;;;9.20;82.40;;;;;;4969183;28;20508;-76
2023/05/24 05:39:16;;;;;;;12.95;2.63;;;9.20;82.40;;;;;;4961175;28;20950;-76
2023/05/24 05:41:44;;;;;;;11.75;2.17;;;9.20;82.10;;;;;;4955506;28;20130;-77
2023/05/24 05:44:12;;;;;;;11.07;2.27;;;9.20;82.40;;;;;;4944591;28;20058;-77
2023/05/24 05:46:40;;;;;;;11.75;2.88;;;9.30;82.30;;;;;;4942797;28;20131;-77
2023/05/24 05:49:08;;;;;;;12.95;2.80;;;9.40;82.60;;;;;;4961318;28;20415;-77
2023/05/24 05:51:36;;;;;;;13.38;2.50;;;9.40;82.60;;;;;;4957766;28;20055;-77
2023/05/24 05:54:03;;;;;;;12.15;2.97;;;9.50;82.70;;;;;;4948459;28;20466;-77
2023/05/24 05:56:30;;;;;;;14.37;3.53;;;9.50;82.70;;;;;;4946649;28;20051;-78
2023/05/24 05:58:58;;;;;;;14.98;2.47;;;9.60;82.80;;;;;;4963586;28;20570;-76
2023/05/24 06:01:25;;;;;;;13.55;3.08;;;9.70;82.70;;;;;;4968552;28;21133;-77
2023/05/24 06:03:52;;;;;;;10.70;2.70;;;9.70;82.20;;;;;;4969344;28;20474;-77
2023/05/24 06:06:19;;;;;;;10.23;2.20;;;9.80;81.90;;;;;;4938439;28;20180;-77
2023/05/24 06:08:46;;;;;;;13.53;3.10;;;9.80;81.70;;;;;;4957420;28;20051;-77
2023/05/24 06:11:13;;;;;;;11.40;2.92;;;9.90;81.60;;;;;;4958020;28;20047;-77
2023/05/24 06:13:40;;;;;;;14.05;2.65;;;10.00;81.60;;;;;;4937271;28;20153;-77
2023/05/24 06:16:09;;;;;;;17.05;2.95;;;10.00;81.40;;;;;;4957292;28;20060;-77
2023/05/24 06:18:36;;;;;;;10.63;2.55;;;10.00;81.30;;;;;;4941962;28;20059;-77
2023/05/24 06:21:03;;;;;;;9.43;1.80;;;10.00;81.10;;;;;;4949176;28;20114;-77
2023/05/24 06:23:31;;;;;;;12.98;2.85;;;10.10;80.90;;;;;;4966521;28;20052;-77
2023/05/24 06:25:58;;;;;;;10.30;1.85;;;10.10;80.70;;;;;;4950126;28;20047;-77
2023/05/24 06:28:25;;;;;;;13.98;2.58;;;10.20;80.70;;;;;;4947566;28;20054;-77
2023/05/24 06:30:52;;;;;;;11.77;1.98;;;10.20;80.70;;;;;;4948364;28;20059;-77
2023/05/24 06:33:21;;;;;;;13.80;2.30;;;10.20;80.50;;;;;;4963169;28;20138;-77
2023/05/24 06:35:48;;;;;;;15.70;2.72;;;10.30;80.60;;;;;;4963230;28;20043;-77
2023/05/24 06:38:16;;;;;;;11.77;2.63;;;10.30;80.50;;;;;;4966294;28;20048;-77
2023/05/24 06:40:43;;;;;;;13.75;2.95;;;10.30;80.70;;;;;;4967713;28;20484;-77
2023/05/24 06:43:10;;;;;;;16.13;3.63;;;10.40;81.10;;;;;;4949558;28;20047;-77
2023/05/24 06:45:40;;;;;;;12.80;3.33;;;10.40;80.50;;;;;;4962477;28;20115;-77
2023/05/24 06:48:07;;;;;;;15.55;3.03;;;10.50;80.40;;;;;;4970062;28;20138;-77
2023/05/24 06:50:37;;;;;;;11.52;2.45;;;10.50;80.40;;;;;;4967964;28;20049;-77
2023/05/24 06:53:04;;;;;;;13.30;2.78;;;10.60;80.20;;;;;;4967727;28;20130;-77
2023/05/24 06:55:31;;;;;;;12.27;2.40;;;10.60;80.50;;;;;;4963950;28;20056;-77
2023/05/24 06:57:58;;;;;;;14.43;2.80;;;10.70;80.50;;;;;;4967967;28;20063;-77
2023/05/24 07:00:26;;;;;;;13.98;3.20;;;10.70;80.10;;;;;;4947817;28;20051;-77
2023/05/24 07:02:54;;;;;;;14.05;3.03;;;10.80;80.00;;;;;;4948924;28;20051;-77
2023/05/24 07:05:21;;;;;;;15.48;2.70;;;10.80;80.00;;;;;;4956552;28;20039;-77
2023/05/24 07:07:50;;;;;;;13.27;3.00;;;10.90;79.70;;;;;;4951426;28;20058;-78
2023/05/24 07:10:16;;;;;;;14.80;2.80;;;10.90;79.60;;;;;;4948562;28;20150;-78
2023/05/24 07:12:44;;;;;;;16.45;2.53;;;11.00;79.50;;;;;;4964590;28;20454;-78
2023/05/24 07:15:12;;;;;;;8.75;1.83;;;11.00;79.20;;;;;;4958890;28;20515;-77
2023/05/24 07:17:39;;;;;;;7.63;1.90;;;11.00;78.90;;;;;;4959890;28;20087;-78
2023/05/24 07:20:09;;;;;;;10.35;2.55;;;11.10;78.50;;;;;;4966974;28;20807;-80
2023/05/24 07:22:36;;;;;;;12.60;2.50;;;11.10;77.90;;;;;;4974141;28;20121;-80
2023/05/24 07:25:06;;;;;;;12.02;2.35;;;11.10;78.00;;;;;;4967888;28;20061;-78
2023/05/24 07:27:33;;;;;;;12.43;2.50;;;11.20;77.90;;;;;;4946377;28;20110;-76
2023/05/24 07:30:01;;;;;;;11.80;2.88;;;11.30;77.80;;;;;;4964361;28;20569;-76
2023/05/24 07:32:28;;;;;;;9.68;2.20;;;11.30;77.40;;;;;;4965816;28;20074;-77
2023/05/24 07:34:55;;;;;;;13.17;2.60;;;11.40;77.40;;;;;;4953764;28;20058;-76
2023/05/24 07:37:23;;;;;;;7.97;1.90;;;11.40;77.10;;;;;;4983409;23;21084;-78
2023/05/24 07:39:50;;;;;;;10.35;2.33;;;11.40;76.80;;;;;;4967912;28;20055;-77
2023/05/24 07:42:20;;;;;;;13.82;2.53;;;11.40;76.60;;;;;;4981526;28;20508;-76
2023/05/24 07:44:47;;;;;;;9.60;2.10;;;11.50;76.20;;;;;;4966607;28;20150;-78
2023/05/24 07:47:14;;;;;;;9.90;2.10;;;11.50;76.10;;;;;;4985857;28;20061;-81
2023/05/24 07:49:42;;;;;;;9.60;2.17;;;11.50;76.00;;;;;;4969321;28;20082;-77
2023/05/24 07:52:09;;;;;;;10.23;2.28;;;11.60;76.10;;;;;;4976794;28;20057;-80
2023/05/24 07:54:36;;;;;;;12.73;1.95;;;11.70;75.70;;;;;;4965115;28;20043;-79
2023/05/24 07:57:03;;;;;;;7.85;1.95;;;11.70;75.00;;;;;;4977797;28;20063;-80
2023/05/24 07:59:32;;;;;;;9.80;2.30;;;11.70;75.20;;;;;;4966743;28;20047;-80
2023/05/24 08:02:02;;;;;;;7.82;1.60;;;11.80;74.30;;;;;;4970329;28;20130;-79
2023/05/24 08:04:30;;;;;;;8.88;1.80;;;11.90;74.20;;;;;;4953586;28;20054;-81
2023/05/24 08:06:58;;;;;;;10.02;2.20;;;11.90;74.10;;;;;;4979648;28;20451;-79
2023/05/24 08:09:26;;;;;;;11.90;2.20;;;11.90;74.00;;;;;;4987299;28;20469;-78
2023/05/24 08:11:53;;;;;;;7.20;2.00;;;11.90;73.70;;;;;;4975238;28;20065;-78
2023/05/24 08:14:21;;;;;;;9.10;1.70;;;12.00;73.80;;;;;;4977366;28;20042;-78
2023/05/24 08:16:49;;;;;;;9.77;2.33;;;12.00;73.90;;;;;;4967875;28;20608;-78
2023/05/24 08:19:18;;;;;;;8.30;1.92;;;12.10;73.30;;;;;;4962095;28;20106;-79
2023/05/24 08:21:48;;;;;;;8.27;2.40;;;12.10;72.60;;;;;;4963278;28;20102;-78
2023/05/24 08:24:16;;;;;;;8.90;2.10;;;12.20;72.60;;;;;;4990546;28;20062;-80
2023/05/24 08:26:44;;;;;;;8.40;1.65;;;12.20;72.10;;;;;;4993615;28;20077;-76
2023/05/24 08:29:11;;;;;;;8.52;2.00;;;12.30;71.50;;;;;;4974017;28;20052;-76
2023/05/24 08:31:38;;;;;;;9.10;1.63;;;12.30;69.20;;;;;;4964624;28;20051;-75
2023/05/24 08:34:07;;;;;;;9.25;2.10;;;12.30;70.00;;;;;;5001009;28;20149;-77
2023/05/24 08:36:34;;;;;;;8.37;2.20;;;12.30;70.50;;;;;;5002659;28;20170;-76
2023/05/24 08:39:01;;;;;;;7.75;1.70;;;12.40;71.00;;;;;;4973464;28;20497;-76
2023/05/24 08:41:31;;;;;;;11.30;2.67;;;12.50;70.90;;;;;;4983979;28;20105;-78
2023/05/24 08:44:01;;;;;;;9.15;2.38;;;12.50;70.10;;;;;;4991401;28;20623;-78
2023/05/24 08:46:30;;;;;;;7.95;1.98;;;12.50;70.40;;;;;;4977628;28;20050;-78
2023/05/24 08:48:58;;;;;;;10.57;2.07;;;12.50;69.10;;;;;;4975858;28;20091;-77
2023/05/24 08:51:27;;;;;;;10.60;2.15;;;12.60;69.80;;;;;;4995157;28;20059;-78
2023/05/24 08:53:55;;;;;;;8.55;1.67;;;12.70;69.70;;;;;;4976656;28;20051;-78
2023/05/24 08:56:23;;;;;;;10.80;1.50;;;12.70;68.50;;;;;;4954375;28;20130;-78
2023/05/24 08:58:50;;;;;;;8.38;1.80;;;12.70;68.40;;;;;;4967428;28;20653;-78
2023/05/24 09:01:17;;;;;;;6.63;1.93;;;12.80;68.70;;;;;;4962140;28;20142;-78
2023/05/24 09:03:46;;;;;;;14.43;2.22;;;12.80;69.20;;;;;;4969815;28;20051;-80
2023/05/24 09:06:17;;;;;;;11.13;2.42;;;12.90;69.30;;;;;;4963774;28;20044;-79
2023/05/24 09:08:46;;;;;;;9.00;2.20;;;12.90;69.10;;;;;;4971932;28;20520;-78
2023/05/24 09:11:16;;;;;;;10.70;2.30;;;12.90;69.00;;;;;;4988041;28;20058;-78
2023/05/24 09:13:45;;;;;;;11.43;2.43;;;13.00;69.20;;;;;;4966383;28;20134;-79
2023/05/24 09:16:12;;;;;;;10.52;2.38;;;13.00;69.40;;;;;;4978198;28;20556;-78
2023/05/24 09:18:40;;;;;;;8.07;1.55;;;13.10;69.50;;;;;;4966501;28;20055;-80
2023/05/24 09:21:07;;;;;;;9.75;2.30;;;13.10;69.50;;;;;;4989488;28;20091;-79
2023/05/24 09:23:35;;;;;;;8.63;2.17;;;13.10;68.90;;;;;;4994511;28;20047;-80
2023/05/24 09:26:09;;;;;;;25.80;3.10;;;13.10;69.10;;;;;;4953867;28;21090;-80
2023/05/24 09:28:37;;;;;;;5.65;1.90;;;13.20;69.10;;;;;;4974582;28;20057;-79
2023/05/24 09:31:04;;;;;;;8.68;2.15;;;13.30;69.10;;;;;;4978441;28;20790;-78
2023/05/24 09:33:32;;;;;;;10.85;1.98;;;13.30;69.10;;;;;;4972475;28;20046;-78
2023/05/24 09:36:01;;;;;;;8.70;2.15;;;13.30;68.70;;;;;;4965630;28;20055;-78
2023/05/24 09:38:29;;;;;;;7.57;2.20;;;13.40;68.60;;;;;;4946489;28;20158;-78
2023/05/24 09:41:03;;;;;;;9.13;2.33;;;13.50;68.30;;;;;;4963788;28;20933;-78
2023/05/24 09:43:33;;;;;;;4.38;0.95;;;13.50;68.20;;;;;;4971636;28;20146;-79
2023/05/24 09:46:03;;;;;;;9.50;1.85;;;13.50;67.50;;;;;;4986792;28;20058;-79
2023/05/24 09:48:31;;;;;;;8.15;2.15;;;13.50;68.00;;;;;;4982694;28;20057;-76
2023/05/24 09:51:03;;;;;;;5.63;1.50;;;13.60;67.20;;;;;;4987439;28;20111;-76
2023/05/24 09:53:32;;;;;;;8.82;1.73;;;13.70;67.50;;;;;;4996003;28;20057;-77
2023/05/24 09:56:00;;;;;;;8.27;1.80;;;13.70;67.50;;;;;;4984104;28;20051;-77
2023/05/24 09:58:31;;;;;;;5.88;1.55;;;13.80;67.50;;;;;;4960237;28;20051;-77
2023/05/24 10:01:07;;;;;;;6.63;1.50;;;13.90;67.20;;;;;;4989512;28;20059;-77
2023/05/24 10:03:36;;;;;;;7.97;1.90;;;13.90;67.40;;;;;;4966149;28;20047;-78
2023/05/24 10:06:06;;;;;;;5.88;1.52;;;14.00;67.40;;;;;;4988694;28;20048;-78
2023/05/24 10:08:34;;;;;;;7.53;1.45;;;14.00;67.10;;;;;;4980847;28;20056;-77
2023/05/24 10:11:03;;;;;;;7.07;1.60;;;14.10;67.10;;;;;;4958346;28;20057;-78
2023/05/24 10:13:34;;;;;;;7.82;1.65;;;14.20;67.30;;;;;;4999400;28;20055;-77
2023/05/24 10:16:01;;;;;;;9.73;2.17;;;14.20;66.80;;;;;;4967564;28;20054;-77
2023/05/24 10:18:29;;;;;;;9.05;2.00;;;14.30;66.60;;;;;;4970844;28;21082;-77
2023/05/24 10:20:57;;;;;;;11.20;2.25;;;14.30;65.50;;;;;;4961616;28;20066;-78
2023/05/24 10:23:28;;;;;;;9.70;1.95;;;14.40;64.30;;;;;;4969561;28;20058;-78
2023/05/24 10:26:01;;;;;;;6.55;1.92;;;14.40;64.10;;;;;;5003202;23;20134;-77
2023/05/24 10:28:28;;;;;;;11.23;2.80;;;14.40;63.90;;;;;;4989531;28;20141;-77
2023/05/24 10:31:03;;;;;;;5.93;1.58;;;14.50;63.70;;;;;;4986684;28;20098;-77
2023/05/24 10:33:32;;;;;;;9.63;2.10;;;14.50;63.20;;;;;;4982267;28;20074;-77
2023/05/24 10:35:59;;;;;;;6.55;1.70;;;14.50;62.30;;;;;;4984617;28;20062;-77
2023/05/24 10:38:26;;;;;;;9.25;1.95;;;14.50;63.20;;;;;;4968718;28;20058;-78
2023/05/24 10:40:54;;;;;;;7.10;1.90;;;14.50;63.10;;;;;;4963256;28;20112;-78
2023/05/24 10:43:21;;;;;;;7.70;2.10;;;14.50;63.70;;;;;;4970016;28;20055;-77
2023/05/24 10:45:50;;;;;;;5.15;1.60;;;14.50;64.00;;;;;;4987279;28;20062;-78
2023/05/24 10:48:36;;;;;;;7.72;2.20;;;14.60;64.10;;;;;;4953328;28;20047;-77
2023/05/24 10:51:35;;;;;;;8.90;2.22;;;14.60;64.00;;;;;;4987266;28;20062;-78
2023/05/24 10:54:20;;;;;;;7.00;1.50;;;14.70;63.50;;;;;;4962960;28;20133;-78
2023/05/24 10:56:49;;;;;;;6.80;1.65;;;14.80;63.30;;;;;;4969835;28;20043;-78
2023/05/24 10:59:28;;;;;;;5.88;2.15;;;14.80;61.70;;;;;;4969934;28;20059;-78
2023/05/24 11:01:56;;;;;;;6.22;1.55;;;14.90;62.90;;;;;;4987243;28;20089;-77
2023/05/24 11:04:26;;;;;;;6.22;1.20;;;14.90;62.20;;;;;;4971124;28;20370;-78
2023/05/24 11:06:59;;;;;;;4.87;1.60;;;15.00;61.50;;;;;;4987176;28;20093;-77
2023/05/24 11:09:26;;;;;;;6.22;1.63;;;15.00;61.70;;;;;;4986666;28;20093;-78
2023/05/24 11:12:01;;;;;;;5.55;1.52;;;15.00;61.40;;;;;;4969927;28;21101;-78
2023/05/24 11:14:29;;;;;;;6.65;1.73;;;15.00;60.90;;;;;;4988571;28;20051;-78
2023/05/24 11:16:59;;;;;;;6.82;1.98;;;15.00;61.10;;;;;;4988039;28;20085;-78
2023/05/24 11:19:33;;;;;;;6.07;1.90;;;15.10;61.50;;;;;;4969800;28;20473;-77
2023/05/24 11:22:02;;;;;;;8.15;2.00;;;15.20;61.60;;;;;;4988185;28;20506;-77
2023/05/24 11:24:30;;;;;;;8.30;1.70;;;15.20;61.80;;;;;;4967705;28;20129;-77
2023/05/24 11:26:58;;;;;;;8.45;1.80;;;15.20;61.70;;;;;;4987649;28;21127;-78
2023/05/24 11:29:24;;;;;;;5.43;1.73;;;15.20;61.30;;;;;;4969996;28;20046;-78
2023/05/24 11:31:53;;;;;;;6.77;1.70;;;15.30;61.50;;;;;;4987242;28;20054;-78
2023/05/24 11:34:20;;;;;;;5.95;1.80;;;15.30;61.60;;;;;;4964474;28;20061;-78
2023/05/24 11:36:50;;;;;;;7.70;1.63;;;15.30;61.80;;;;;;4979212;28;20048;-78
2023/05/24 11:39:18;;;;;;;6.18;1.73;;;15.30;61.90;;;;;;4985424;28;20073;-78
2023/05/24 11:41:48;;;;;;;7.13;2.03;;;15.40;62.10;;;;;;4990157;28;20126;-78
2023/05/24 11:44:18;;;;;;;6.70;1.80;;;15.40;62.30;;;;;;5004756;28;20157;-78
2023/05/24 11:46:45;;;;;;;7.75;1.92;;;15.50;62.50;;;;;;5022740;28;20101;-77
2023/05/24 11:49:14;;;;;;;7.38;1.77;;;15.50;62.30;;;;;;5004240;28;20049;-78
2023/05/24 11:51:41;;;;;;;9.65;2.05;;;15.50;61.90;;;;;;5025372;28;20050;-78
2023/05/24 11:54:10;;;;;;;9.35;2.08;;;15.50;61.80;;;;;;5024140;28;20080;-78
2023/05/24 11:56:37;;;;;;;6.70;1.87;;;15.50;61.40;;;;;;5017302;28;20586;-79
2023/05/24 11:59:14;;;;;;;19.00;2.83;;;15.50;61.40;;;;;;5006326;28;20050;-78
2023/05/24 12:01:41;;;;;;;14.30;2.33;;;15.50;61.60;;;;;;5022486;28;20053;-77
2023/05/24 12:04:09;;;;;;;7.80;1.90;;;15.50;61.60;;;;;;5019220;28;20053;-76
2023/05/24 12:06:37;;;;;;;9.38;2.20;;;15.50;61.70;;;;;;5007913;28;20050;-77
2023/05/24 12:09:09;;;;;;;8.50;2.20;;;15.50;62.20;;;;;;5010732;28;20179;-78
2023/05/24 12:11:41;;;;;;;11.98;2.63;;;15.50;62.20;;;;;;4997993;28;20046;-79
2023/05/24 12:14:12;;;;;;;8.20;2.10;;;15.50;62.20;;;;;;5000678;28;20054;-79
2023/05/24 12:16:39;;;;;;;10.60;2.50;;;15.50;62.40;;;;;;5024242;28;20064;-79
2023/05/24 12:19:06;;;;;;;9.07;2.40;;;15.50;62.80;;;;;;5010880;28;20063;-79
2023/05/24 12:21:35;;;;;;;7.93;2.60;;;15.50;62.60;;;;;;5028970;28;20563;-78
2023/05/24 12:24:09;;;;;;;11.07;2.40;;;15.50;62.30;;;;;;5010722;28;20052;-78
2023/05/24 12:26:37;;;;;;;11.48;2.30;;;15.50;62.20;;;;;;5013492;28;20045;-78
2023/05/24 12:29:06;;;;;;;9.63;2.00;;;15.50;63.30;;;;;;5016070;28;20049;-78
2023/05/24 12:31:34;;;;;;;11.38;2.25;;;15.60;63.00;;;;;;5011255;28;20078;-78
2023/05/24 12:34:02;;;;;;;8.23;2.40;;;15.60;62.60;;;;;;5012071;28;20884;-78
2023/05/24 12:36:30;;;;;;;10.57;2.28;;;15.60;62.20;;;;;;5030460;28;20089;-80
2023/05/24 12:38:58;;;;;;;7.65;1.92;;;15.60;61.90;;;;;;5027316;28;20089;-79
2023/05/24 12:41:26;;;;;;;9.55;2.00;;;15.60;62.20;;;;;;5012002;28;20046;-79
2023/05/24 12:43:54;;;;;;;8.85;2.13;;;15.60;62.00;;;;;;5030049;28;20062;-79
2023/05/24 12:46:22;;;;;;;7.97;1.80;;;15.60;61.80;;;;;;5011404;28;20615;-79
2023/05/24 12:48:49;;;;;;;9.00;1.90;;;15.60;62.10;;;;;;5008276;28;20046;-78
2023/05/24 12:51:16;;;;;;;7.88;1.83;;;15.60;62.30;;;;;;5030092;28;20073;-79
2023/05/24 12:53:44;;;;;;;72.97;8.32;;;15.60;62.20;;;;;;5029775;28;20151;-79
2023/05/24 12:56:12;;;;;;;10.20;2.20;;;15.60;61.60;;;;;;5011967;28;20093;-78
2023/05/24 12:58:39;;;;;;;8.37;1.90;;;15.60;61.40;;;;;;5012130;28;20728;-79